sensor_id;sensor_type;location;lat;lon;timestamp;temperature;humidity
20732;DHT22;10527;52.124;5.196;2022-07-23T00:00:26;18.20;99.90
20732;DHT22;10527;52.124;5.196;2022-07-23T00:02:53;18.20;99.90
20732;DHT22;10527;52.124;5.196;2022-07-23T00:05:20;18.20;99.90
20732;DHT22;10527;52.124;5.196;2022-07-23T00:07:46;18.10;99.90
20732;DHT22;10527;52.124;5.196;2022-07-23T00:10:13;18.00;99.90
20732;DHT22;10527;52.124;5.196;2022-07-23T00:12:40;18.00;99.90
20732;DHT22;10527;52.124;5.196;2022-07-23T00:15:17;17.90;99.90
20732;DHT22;10527;52.124;5.196;2022-07-23T00:17:45;17.90;99.90
20732;DHT22;10527;52.124;5.196;2022-07-23T00:20:18;17.90;99.90
20732;DHT22;10527;52.124;5.196;2022-07-23T00:22:50;18.00;99.90
20732;DHT22;10527;52.124;5.196;2022-07-23T00:25:21;18.10;99.90
20732;DHT22;10527;52.124;5.196;2022-07-23T00:27:55;18.10;99.90
20732;DHT22;10527;52.124;5.196;2022-07-23T00:30:23;18.10;99.90
20732;DHT22;10527;52.124;5.196;2022-07-23T00:32:52;18.00;99.90
20732;DHT22;10527;52.124;5.196;2022-07-23T00:35:23;17.90;99.90
20732;DHT22;10527;52.124;5.196;2022-07-23T00:38:01;17.70;99.90
20732;DHT22;10527;52.124;5.196;2022-07-23T00:40:30;17.70;99.90
20732;DHT22;10527;52.124;5.196;2022-07-23T00:42:57;17.70;99.90
20732;DHT22;10527;52.124;5.196;2022-07-23T00:45:25;17.70;99.90
20732;DHT22;10527;52.124;5.196;2022-07-23T00:47:53;17.40;99.90
20732;DHT22;10527;52.124;5.196;2022-07-23T00:50:20;17.40;99.90
20732;DHT22;10527;52.124;5.196;2022-07-23T00:52:48;17.40;99.90
20732;DHT22;10527;52.124;5.196;2022-07-23T00:55:15;17.30;99.90
20732;DHT22;10527;52.124;5.196;2022-07-23T00:57:42;17.40;99.90
20732;DHT22;10527;52.124;5.196;2022-07-23T01:00:11;17.30;99.90
20732;DHT22;10527;52.124;5.196;2022-07-23T01:02:41;17.40;99.90
20732;DHT22;10527;52.124;5.196;2022-07-23T01:05:09;17.60;99.90
20732;DHT22;10527;52.124;5.196;2022-07-23T01:07:36;17.60;99.90
20732;DHT22;10527;52.124;5.196;2022-07-23T01:10:05;17.60;99.90
20732;DHT22;10527;52.124;5.196;2022-07-23T01:12:52;17.50;99.90
20732;DHT22;10527;52.124;5.196;2022-07-23T01:15:19;17.60;99.90
20732;DHT22;10527;52.124;5.196;2022-07-23T01:17:46;17.60;99.90
20732;DHT22;10527;52.124;5.196;2022-07-23T01:20:13;17.50;99.90
20732;DHT22;10527;52.124;5.196;2022-07-23T01:22:40;17.50;99.90
20732;DHT22;10527;52.124;5.196;2022-07-23T01:25:07;17.40;99.90
20732;DHT22;10527;52.124;5.196;2022-07-23T01:27:34;17.50;99.90
20732;DHT22;10527;52.124;5.196;2022-07-23T01:30:02;17.50;99.90
20732;DHT22;10527;52.124;5.196;2022-07-23T01:32:29;17.50;99.90
20732;DHT22;10527;52.124;5.196;2022-07-23T01:34:56;17.50;99.90
20732;DHT22;10527;52.124;5.196;2022-07-23T01:37:23;17.50;99.90
20732;DHT22;10527;52.124;5.196;2022-07-23T01:39:50;17.60;99.90
20732;DHT22;10527;52.124;5.196;2022-07-23T01:42:17;17.60;99.90
20732;DHT22;10527;52.124;5.196;2022-07-23T01:44:46;17.60;99.90
20732;DHT22;10527;52.124;5.196;2022-07-23T01:47:13;17.60;99.90
20732;DHT22;10527;52.124;5.196;2022-07-23T01:49:39;17.60;99.90
20732;DHT22;10527;52.124;5.196;2022-07-23T01:52:07;17.60;99.90
20732;DHT22;10527;52.124;5.196;2022-07-23T01:54:38;17.60;99.90
20732;DHT22;10527;52.124;5.196;2022-07-23T01:57:06;17.50;99.90
20732;DHT22;10527;52.124;5.196;2022-07-23T01:59:34;17.40;99.90
20732;DHT22;10527;52.124;5.196;2022-07-23T02:02:02;17.30;99.90
20732;DHT22;10527;52.124;5.196;2022-07-23T02:04:30;17.20;99.90
20732;DHT22;10527;52.124;5.196;2022-07-23T02:06:59;17.20;99.90
20732;DHT22;10527;52.124;5.196;2022-07-23T02:09:26;17.20;99.90
20732;DHT22;10527;52.124;5.196;2022-07-23T02:11:53;17.20;99.90
20732;DHT22;10527;52.124;5.196;2022-07-23T02:14:20;17.10;99.90
20732;DHT22;10527;52.124;5.196;2022-07-23T02:16:46;17.20;99.90
20732;DHT22;10527;52.124;5.196;2022-07-23T02:19:13;17.20;99.90
20732;DHT22;10527;52.124;5.196;2022-07-23T02:21:40;17.10;99.90
20732;DHT22;10527;52.124;5.196;2022-07-23T02:24:08;17.10;99.90
20732;DHT22;10527;52.124;5.196;2022-07-23T02:26:35;17.00;99.90
20732;DHT22;10527;52.124;5.196;2022-07-23T02:29:03;17.10;99.90
20732;DHT22;10527;52.124;5.196;2022-07-23T02:31:31;17.20;99.90
20732;DHT22;10527;52.124;5.196;2022-07-23T02:33:58;17.20;99.90
20732;DHT22;10527;52.124;5.196;2022-07-23T02:36:30;17.10;99.90
20732;DHT22;10527;52.124;5.196;2022-07-23T02:38:58;17.10;99.90
20732;DHT22;10527;52.124;5.196;2022-07-23T02:41:25;17.10;99.90
20732;DHT22;10527;52.124;5.196;2022-07-23T02:43:52;17.00;99.90
20732;DHT22;10527;52.124;5.196;2022-07-23T02:46:19;16.80;99.90
20732;DHT22;10527;52.124;5.196;2022-07-23T02:48:46;16.70;99.90
20732;DHT22;10527;52.124;5.196;2022-07-23T02:51:13;16.70;99.90
20732;DHT22;10527;52.124;5.196;2022-07-23T02:53:41;16.70;99.90
20732;DHT22;10527;52.124;5.196;2022-07-23T02:56:14;16.70;99.90
20732;DHT22;10527;52.124;5.196;2022-07-23T02:58:40;16.80;99.90
20732;DHT22;10527;52.124;5.196;2022-07-23T03:01:07;16.70;99.90
20732;DHT22;10527;52.124;5.196;2022-07-23T03:03:34;16.70;99.90
20732;DHT22;10527;52.124;5.196;2022-07-23T03:06:01;16.60;99.90
20732;DHT22;10527;52.124;5.196;2022-07-23T03:08:28;16.50;99.90
20732;DHT22;10527;52.124;5.196;2022-07-23T03:10:55;16.50;99.90
20732;DHT22;10527;52.124;5.196;2022-07-23T03:13:23;16.40;99.90
20732;DHT22;10527;52.124;5.196;2022-07-23T03:15:51;16.40;99.90
20732;DHT22;10527;52.124;5.196;2022-07-23T03:18:18;16.50;99.90
20732;DHT22;10527;52.124;5.196;2022-07-23T03:20:45;16.40;99.90
20732;DHT22;10527;52.124;5.196;2022-07-23T03:23:12;16.40;99.90
20732;DHT22;10527;52.124;5.196;2022-07-23T03:25:39;16.40;99.90
20732;DHT22;10527;52.124;5.196;2022-07-23T03:28:06;16.40;99.90
20732;DHT22;10527;52.124;5.196;2022-07-23T03:30:32;16.30;99.90
20732;DHT22;10527;52.124;5.196;2022-07-23T03:32:59;16.30;99.90
20732;DHT22;10527;52.124;5.196;2022-07-23T03:35:26;16.40;99.90
20732;DHT22;10527;52.124;5.196;2022-07-23T03:37:53;16.40;99.90
20732;DHT22;10527;52.124;5.196;2022-07-23T03:40:20;16.40;99.90
20732;DHT22;10527;52.124;5.196;2022-07-23T03:42:47;16.40;99.90
20732;DHT22;10527;52.124;5.196;2022-07-23T03:45:14;16.40;99.90
20732;DHT22;10527;52.124;5.196;2022-07-23T03:47:41;16.40;99.90
20732;DHT22;10527;52.124;5.196;2022-07-23T03:50:08;16.40;99.90
20732;DHT22;10527;52.124;5.196;2022-07-23T03:52:35;16.40;99.90
20732;DHT22;10527;52.124;5.196;2022-07-23T03:55:03;16.50;99.90
20732;DHT22;10527;52.124;5.196;2022-07-23T03:57:32;16.50;99.90
20732;DHT22;10527;52.124;5.196;2022-07-23T03:59:59;16.60;99.90
20732;DHT22;10527;52.124;5.196;2022-07-23T04:02:26;16.50;99.90
20732;DHT22;10527;52.124;5.196;2022-07-23T04:04:53;16.50;99.90
20732;DHT22;10527;52.124;5.196;2022-07-23T04:07:20;16.50;99.90
20732;DHT22;10527;52.124;5.196;2022-07-23T04:09:48;16.60;99.90
20732;DHT22;10527;52.124;5.196;2022-07-23T04:12:15;16.50;99.90
20732;DHT22;10527;52.124;5.196;2022-07-23T04:14:42;16.50;99.90
20732;DHT22;10527;52.124;5.196;2022-07-23T04:17:09;16.50;99.90
20732;DHT22;10527;52.124;5.196;2022-07-23T04:19:37;16.40;99.90
20732;DHT22;10527;52.124;5.196;2022-07-23T04:22:07;16.20;99.90
20732;DHT22;10527;52.124;5.196;2022-07-23T04:24:34;16.20;99.90
20732;DHT22;10527;52.124;5.196;2022-07-23T04:27:02;16.30;99.90
20732;DHT22;10527;52.124;5.196;2022-07-23T04:29:31;16.30;99.90
20732;DHT22;10527;52.124;5.196;2022-07-23T04:31:58;16.30;99.90
20732;DHT22;10527;52.124;5.196;2022-07-23T04:34:25;16.30;99.90
20732;DHT22;10527;52.124;5.196;2022-07-23T04:36:53;16.40;99.90
20732;DHT22;10527;52.124;5.196;2022-07-23T04:39:20;16.40;99.90
20732;DHT22;10527;52.124;5.196;2022-07-23T04:41:47;16.40;99.90
20732;DHT22;10527;52.124;5.196;2022-07-23T04:44:14;16.40;99.90
20732;DHT22;10527;52.124;5.196;2022-07-23T04:46:42;16.40;99.90
20732;DHT22;10527;52.124;5.196;2022-07-23T04:49:09;16.30;99.90
20732;DHT22;10527;52.124;5.196;2022-07-23T04:51:36;16.30;99.90
20732;DHT22;10527;52.124;5.196;2022-07-23T04:54:03;16.30;99.90
20732;DHT22;10527;52.124;5.196;2022-07-23T04:56:30;16.30;99.90
20732;DHT22;10527;52.124;5.196;2022-07-23T04:58:57;16.40;99.90
20732;DHT22;10527;52.124;5.196;2022-07-23T05:01:24;16.40;99.90
20732;DHT22;10527;52.124;5.196;2022-07-23T05:03:51;16.50;99.90
20732;DHT22;10527;52.124;5.196;2022-07-23T05:06:18;16.50;99.90
20732;DHT22;10527;52.124;5.196;2022-07-23T05:08:45;16.50;99.90
20732;DHT22;10527;52.124;5.196;2022-07-23T05:11:12;16.50;99.90
20732;DHT22;10527;52.124;5.196;2022-07-23T05:13:39;16.50;99.90
20732;DHT22;10527;52.124;5.196;2022-07-23T05:16:06;16.60;99.90
20732;DHT22;10527;52.124;5.196;2022-07-23T05:18:33;16.60;99.90
20732;DHT22;10527;52.124;5.196;2022-07-23T05:20:59;16.60;99.90
20732;DHT22;10527;52.124;5.196;2022-07-23T05:23:26;16.60;99.90
20732;DHT22;10527;52.124;5.196;2022-07-23T05:25:53;16.60;99.90
20732;DHT22;10527;52.124;5.196;2022-07-23T05:28:20;16.70;99.90
20732;DHT22;10527;52.124;5.196;2022-07-23T05:30:48;16.70;99.90
20732;DHT22;10527;52.124;5.196;2022-07-23T05:33:20;16.60;99.90
20732;DHT22;10527;52.124;5.196;2022-07-23T05:35:47;16.60;99.90
20732;DHT22;10527;52.124;5.196;2022-07-23T05:38:15;16.50;99.90
20732;DHT22;10527;52.124;5.196;2022-07-23T05:40:42;16.50;99.90
20732;DHT22;10527;52.124;5.196;2022-07-23T05:43:09;16.60;99.90
20732;DHT22;10527;52.124;5.196;2022-07-23T05:45:36;16.50;99.90
20732;DHT22;10527;52.124;5.196;2022-07-23T05:48:03;16.40;99.90
20732;DHT22;10527;52.124;5.196;2022-07-23T05:50:30;16.50;99.90
20732;DHT22;10527;52.124;5.196;2022-07-23T05:52:57;16.60;99.90
20732;DHT22;10527;52.124;5.196;2022-07-23T05:55:24;16.50;99.90
20732;DHT22;10527;52.124;5.196;2022-07-23T05:57:51;16.50;99.90
20732;DHT22;10527;52.124;5.196;2022-07-23T06:00:18;16.40;99.90
20732;DHT22;10527;52.124;5.196;2022-07-23T06:02:45;16.50;99.90
20732;DHT22;10527;52.124;5.196;2022-07-23T06:05:17;16.50;99.90
20732;DHT22;10527;52.124;5.196;2022-07-23T06:07:44;16.50;99.90
20732;DHT22;10527;52.124;5.196;2022-07-23T06:10:11;16.50;99.90
20732;DHT22;10527;52.124;5.196;2022-07-23T06:12:38;16.50;99.90
20732;DHT22;10527;52.124;5.196;2022-07-23T06:15:07;16.60;99.90
20732;DHT22;10527;52.124;5.196;2022-07-23T06:17:37;16.70;99.90
20732;DHT22;10527;52.124;5.196;2022-07-23T06:20:07;16.70;99.90
20732;DHT22;10527;52.124;5.196;2022-07-23T06:22:35;16.70;99.90
20732;DHT22;10527;52.124;5.196;2022-07-23T06:25:02;16.70;99.90
20732;DHT22;10527;52.124;5.196;2022-07-23T06:27:37;16.60;99.90
20732;DHT22;10527;52.124;5.196;2022-07-23T06:30:05;16.60;99.90
20732;DHT22;10527;52.124;5.196;2022-07-23T06:32:34;16.70;99.90
20732;DHT22;10527;52.124;5.196;2022-07-23T06:35:01;16.80;99.90
20732;DHT22;10527;52.124;5.196;2022-07-23T06:37:28;16.70;99.90
20732;DHT22;10527;52.124;5.196;2022-07-23T06:39:55;16.80;99.90
20732;DHT22;10527;52.124;5.196;2022-07-23T06:42:23;16.90;99.90
20732;DHT22;10527;52.124;5.196;2022-07-23T06:44:49;16.90;99.90
20732;DHT22;10527;52.124;5.196;2022-07-23T06:47:16;16.80;99.90
20732;DHT22;10527;52.124;5.196;2022-07-23T06:49:44;16.80;99.90
20732;DHT22;10527;52.124;5.196;2022-07-23T06:52:11;16.80;99.90
20732;DHT22;10527;52.124;5.196;2022-07-23T06:54:38;16.90;99.90
20732;DHT22;10527;52.124;5.196;2022-07-23T06:57:06;17.00;99.90
20732;DHT22;10527;52.124;5.196;2022-07-23T06:59:33;17.00;99.90
20732;DHT22;10527;52.124;5.196;2022-07-23T07:02:02;17.10;99.90
20732;DHT22;10527;52.124;5.196;2022-07-23T07:04:29;17.20;99.90
20732;DHT22;10527;52.124;5.196;2022-07-23T07:06:56;17.20;99.90
20732;DHT22;10527;52.124;5.196;2022-07-23T07:09:23;17.20;99.90
20732;DHT22;10527;52.124;5.196;2022-07-23T07:11:50;17.20;99.90
20732;DHT22;10527;52.124;5.196;2022-07-23T07:14:17;17.10;99.90
20732;DHT22;10527;52.124;5.196;2022-07-23T07:16:44;17.20;99.90
20732;DHT22;10527;52.124;5.196;2022-07-23T07:19:10;17.30;99.90
20732;DHT22;10527;52.124;5.196;2022-07-23T07:21:37;17.30;99.90
20732;DHT22;10527;52.124;5.196;2022-07-23T07:24:05;17.20;99.90
20732;DHT22;10527;52.124;5.196;2022-07-23T07:26:33;17.30;99.90
20732;DHT22;10527;52.124;5.196;2022-07-23T07:29:01;17.50;99.90
20732;DHT22;10527;52.124;5.196;2022-07-23T07:31:29;17.40;99.90
20732;DHT22;10527;52.124;5.196;2022-07-23T07:33:57;17.50;99.90
20732;DHT22;10527;52.124;5.196;2022-07-23T07:36:24;17.60;99.90
20732;DHT22;10527;52.124;5.196;2022-07-23T07:38:54;17.70;99.90
20732;DHT22;10527;52.124;5.196;2022-07-23T07:41:25;17.60;99.90
20732;DHT22;10527;52.124;5.196;2022-07-23T07:43:52;17.70;99.90
20732;DHT22;10527;52.124;5.196;2022-07-23T07:46:19;17.80;99.90
20732;DHT22;10527;52.124;5.196;2022-07-23T07:48:46;17.80;99.90
20732;DHT22;10527;52.124;5.196;2022-07-23T07:51:13;17.80;99.90
20732;DHT22;10527;52.124;5.196;2022-07-23T07:53:40;17.90;99.90
20732;DHT22;10527;52.124;5.196;2022-07-23T07:56:07;17.90;99.90
20732;DHT22;10527;52.124;5.196;2022-07-23T07:58:35;17.90;99.90
20732;DHT22;10527;52.124;5.196;2022-07-23T08:01:02;18.10;99.90
20732;DHT22;10527;52.124;5.196;2022-07-23T08:03:29;18.30;99.90
20732;DHT22;10527;52.124;5.196;2022-07-23T08:05:56;18.60;99.90
20732;DHT22;10527;52.124;5.196;2022-07-23T08:08:23;18.80;99.90
20732;DHT22;10527;52.124;5.196;2022-07-23T08:10:51;19.10;99.90
20732;DHT22;10527;52.124;5.196;2022-07-23T08:13:18;19.30;99.90
20732;DHT22;10527;52.124;5.196;2022-07-23T08:15:45;19.50;99.90
20732;DHT22;10527;52.124;5.196;2022-07-23T08:18:12;19.50;99.90
20732;DHT22;10527;52.124;5.196;2022-07-23T08:20:39;19.70;99.90
20732;DHT22;10527;52.124;5.196;2022-07-23T08:23:07;20.10;99.90
20732;DHT22;10527;52.124;5.196;2022-07-23T08:25:37;20.30;99.90
20732;DHT22;10527;52.124;5.196;2022-07-23T08:28:07;20.50;99.90
20732;DHT22;10527;52.124;5.196;2022-07-23T08:30:36;21.00;99.90
20732;DHT22;10527;52.124;5.196;2022-07-23T08:33:10;21.30;99.90
20732;DHT22;10527;52.124;5.196;2022-07-23T08:35:58;21.20;99.90
20732;DHT22;10527;52.124;5.196;2022-07-23T08:38:26;21.00;99.90
20732;DHT22;10527;52.124;5.196;2022-07-23T08:40:55;20.80;99.90
20732;DHT22;10527;52.124;5.196;2022-07-23T08:43:28;20.60;99.90
20732;DHT22;10527;52.124;5.196;2022-07-23T08:45:59;21.00;99.90
20732;DHT22;10527;52.124;5.196;2022-07-23T08:48:32;21.30;99.90
20732;DHT22;10527;52.124;5.196;2022-07-23T08:51:05;21.70;99.90
20732;DHT22;10527;52.124;5.196;2022-07-23T08:53:34;21.80;99.90
20732;DHT22;10527;52.124;5.196;2022-07-23T08:56:05;22.20;99.90
20732;DHT22;10527;52.124;5.196;2022-07-23T08:58:35;22.60;99.90
20732;DHT22;10527;52.124;5.196;2022-07-23T09:01:05;22.70;99.90
20732;DHT22;10527;52.124;5.196;2022-07-23T09:03:35;23.20;99.90
20732;DHT22;10527;52.124;5.196;2022-07-23T09:06:03;22.40;99.90
20732;DHT22;10527;52.124;5.196;2022-07-23T09:08:39;22.60;99.90
20732;DHT22;10527;52.124;5.196;2022-07-23T09:11:12;23.10;99.90
20732;DHT22;10527;52.124;5.196;2022-07-23T09:13:46;23.40;99.90
20732;DHT22;10527;52.124;5.196;2022-07-23T09:16:31;23.30;99.90
20732;DHT22;10527;52.124;5.196;2022-07-23T09:19:05;22.70;99.90
20732;DHT22;10527;52.124;5.196;2022-07-23T09:21:35;22.60;99.90
20732;DHT22;10527;52.124;5.196;2022-07-23T09:24:11;22.80;99.90
20732;DHT22;10527;52.124;5.196;2022-07-23T09:26:47;22.30;99.90
20732;DHT22;10527;52.124;5.196;2022-07-23T09:29:26;22.60;99.90
20732;DHT22;10527;52.124;5.196;2022-07-23T09:31:55;22.40;99.90
20732;DHT22;10527;52.124;5.196;2022-07-23T09:34:36;22.50;99.90
20732;DHT22;10527;52.124;5.196;2022-07-23T09:37:18;22.90;99.90
20732;DHT22;10527;52.124;5.196;2022-07-23T09:39:48;22.70;99.90
20732;DHT22;10527;52.124;5.196;2022-07-23T09:42:19;23.00;99.90
20732;DHT22;10527;52.124;5.196;2022-07-23T09:44:47;23.10;99.90
20732;DHT22;10527;52.124;5.196;2022-07-23T09:47:38;22.70;99.90
20732;DHT22;10527;52.124;5.196;2022-07-23T09:50:10;23.10;99.90
20732;DHT22;10527;52.124;5.196;2022-07-23T09:52:44;23.20;99.90
20732;DHT22;10527;52.124;5.196;2022-07-23T09:55:17;23.40;99.90
20732;DHT22;10527;52.124;5.196;2022-07-23T09:57:46;23.40;99.90
20732;DHT22;10527;52.124;5.196;2022-07-23T10:00:31;23.20;99.90
20732;DHT22;10527;52.124;5.196;2022-07-23T10:03:00;23.10;99.90
20732;DHT22;10527;52.124;5.196;2022-07-23T10:05:28;23.10;99.90
20732;DHT22;10527;52.124;5.196;2022-07-23T10:07:57;22.80;99.90
20732;DHT22;10527;52.124;5.196;2022-07-23T10:10:28;22.60;99.90
20732;DHT22;10527;52.124;5.196;2022-07-23T10:12:56;22.60;99.90
20732;DHT22;10527;52.124;5.196;2022-07-23T10:15:24;22.50;99.90
20732;DHT22;10527;52.124;5.196;2022-07-23T10:17:52;22.50;99.90
20732;DHT22;10527;52.124;5.196;2022-07-23T10:20:19;23.00;99.90
20732;DHT22;10527;52.124;5.196;2022-07-23T10:23:05;22.90;99.90
20732;DHT22;10527;52.124;5.196;2022-07-23T10:29:24;23.30;99.90
20732;DHT22;10527;52.124;5.196;2022-07-23T10:32:14;23.60;99.90
20732;DHT22;10527;52.124;5.196;2022-07-23T10:34:59;23.70;99.90
20732;DHT22;10527;52.124;5.196;2022-07-23T10:37:39;23.30;99.90
20732;DHT22;10527;52.124;5.196;2022-07-23T10:40:10;23.70;99.90
20732;DHT22;10527;52.124;5.196;2022-07-23T10:42:47;23.50;99.90
20732;DHT22;10527;52.124;5.196;2022-07-23T10:45:30;23.60;99.90
20732;DHT22;10527;52.124;5.196;2022-07-23T10:51:05;23.60;99.90
20732;DHT22;10527;52.124;5.196;2022-07-23T10:56:16;23.30;99.90
20732;DHT22;10527;52.124;5.196;2022-07-23T10:59:04;23.60;99.90
20732;DHT22;10527;52.124;5.196;2022-07-23T11:01:40;23.60;99.90
20732;DHT22;10527;52.124;5.196;2022-07-23T11:04:07;23.50;99.90
20732;DHT22;10527;52.124;5.196;2022-07-23T11:09:25;23.50;99.90
20732;DHT22;10527;52.124;5.196;2022-07-23T11:15:11;23.70;99.90
20732;DHT22;10527;52.124;5.196;2022-07-23T11:20:19;23.80;99.90
20732;DHT22;10527;52.124;5.196;2022-07-23T11:22:56;23.70;99.90
20732;DHT22;10527;52.124;5.196;2022-07-23T11:27:51;23.90;99.90
20732;DHT22;10527;52.124;5.196;2022-07-23T11:33:15;24.10;99.90
20732;DHT22;10527;52.124;5.196;2022-07-23T11:35:46;24.20;99.90
20732;DHT22;10527;52.124;5.196;2022-07-23T11:38:27;23.70;99.90
20732;DHT22;10527;52.124;5.196;2022-07-23T11:40:57;23.90;99.90
20732;DHT22;10527;52.124;5.196;2022-07-23T11:43:25;24.20;99.90
20732;DHT22;10527;52.124;5.196;2022-07-23T11:45:59;24.10;99.90
20732;DHT22;10527;52.124;5.196;2022-07-23T11:48:28;24.20;99.90
20732;DHT22;10527;52.124;5.196;2022-07-23T11:50:57;24.00;99.90
20732;DHT22;10527;52.124;5.196;2022-07-23T11:53:32;24.20;99.90
20732;DHT22;10527;52.124;5.196;2022-07-23T11:56:09;24.40;99.90
20732;DHT22;10527;52.124;5.196;2022-07-23T11:58:38;24.60;99.90
20732;DHT22;10527;52.124;5.196;2022-07-23T12:01:06;24.80;99.90
20732;DHT22;10527;52.124;5.196;2022-07-23T12:03:51;25.00;99.90
20732;DHT22;10527;52.124;5.196;2022-07-23T12:06:20;25.30;99.90
20732;DHT22;10527;52.124;5.196;2022-07-23T12:08:47;25.00;99.90
20732;DHT22;10527;52.124;5.196;2022-07-23T12:11:14;24.60;99.90
20732;DHT22;10527;52.124;5.196;2022-07-23T12:13:41;24.60;99.90
20732;DHT22;10527;52.124;5.196;2022-07-23T12:16:08;24.70;99.90
20732;DHT22;10527;52.124;5.196;2022-07-23T12:18:35;24.90;99.90
20732;DHT22;10527;52.124;5.196;2022-07-23T12:21:04;25.20;99.90
20732;DHT22;10527;52.124;5.196;2022-07-23T12:23:33;25.00;99.90
20732;DHT22;10527;52.124;5.196;2022-07-23T12:26:02;24.70;99.90
20732;DHT22;10527;52.124;5.196;2022-07-23T12:28:31;25.10;99.90
20732;DHT22;10527;52.124;5.196;2022-07-23T12:31:04;25.00;99.90
20732;DHT22;10527;52.124;5.196;2022-07-23T12:33:34;25.50;99.90
20732;DHT22;10527;52.124;5.196;2022-07-23T12:36:06;25.60;99.90
20732;DHT22;10527;52.124;5.196;2022-07-23T12:38:44;25.30;99.90
20732;DHT22;10527;52.124;5.196;2022-07-23T12:41:16;25.20;99.90
20732;DHT22;10527;52.124;5.196;2022-07-23T12:43:45;25.20;99.90
20732;DHT22;10527;52.124;5.196;2022-07-23T12:46:17;25.60;99.90
20732;DHT22;10527;52.124;5.196;2022-07-23T12:51:18;25.50;99.90
20732;DHT22;10527;52.124;5.196;2022-07-23T12:53:57;25.70;99.90
20732;DHT22;10527;52.124;5.196;2022-07-23T12:56:37;26.20;99.90
20732;DHT22;10527;52.124;5.196;2022-07-23T12:59:09;26.00;99.90
20732;DHT22;10527;52.124;5.196;2022-07-23T13:01:40;25.80;99.90
20732;DHT22;10527;52.124;5.196;2022-07-23T13:04:12;25.80;99.90
20732;DHT22;10527;52.124;5.196;2022-07-23T13:06:51;26.00;99.90
20732;DHT22;10527;52.124;5.196;2022-07-23T13:09:22;26.20;99.90
20732;DHT22;10527;52.124;5.196;2022-07-23T13:11:52;26.00;99.90
20732;DHT22;10527;52.124;5.196;2022-07-23T13:14:24;25.70;99.90
20732;DHT22;10527;52.124;5.196;2022-07-23T13:16:53;25.70;99.90
20732;DHT22;10527;52.124;5.196;2022-07-23T13:19:22;25.60;99.90
20732;DHT22;10527;52.124;5.196;2022-07-23T13:21:52;25.70;99.90
20732;DHT22;10527;52.124;5.196;2022-07-23T13:24:20;25.80;99.90
20732;DHT22;10527;52.124;5.196;2022-07-23T13:26:49;26.10;99.90
20732;DHT22;10527;52.124;5.196;2022-07-23T13:29:17;26.00;99.90
20732;DHT22;10527;52.124;5.196;2022-07-23T13:31:46;26.00;99.90
20732;DHT22;10527;52.124;5.196;2022-07-23T13:34:17;26.20;99.90
20732;DHT22;10527;52.124;5.196;2022-07-23T13:36:48;26.20;99.90
20732;DHT22;10527;52.124;5.196;2022-07-23T13:39:15;26.30;99.90
20732;DHT22;10527;52.124;5.196;2022-07-23T13:41:42;26.00;99.90
20732;DHT22;10527;52.124;5.196;2022-07-23T13:44:15;26.10;99.90
20732;DHT22;10527;52.124;5.196;2022-07-23T13:46:43;26.20;99.90
20732;DHT22;10527;52.124;5.196;2022-07-23T13:49:13;26.40;99.90
20732;DHT22;10527;52.124;5.196;2022-07-23T13:51:41;26.20;99.90
20732;DHT22;10527;52.124;5.196;2022-07-23T13:54:08;26.10;99.90
20732;DHT22;10527;52.124;5.196;2022-07-23T13:56:35;26.20;99.90
20732;DHT22;10527;52.124;5.196;2022-07-23T13:59:02;26.10;99.90
20732;DHT22;10527;52.124;5.196;2022-07-23T14:01:33;26.30;99.90
20732;DHT22;10527;52.124;5.196;2022-07-23T14:04:16;26.30;99.90
20732;DHT22;10527;52.124;5.196;2022-07-23T14:06:44;26.60;99.90
20732;DHT22;10527;52.124;5.196;2022-07-23T14:09:18;26.70;99.90
20732;DHT22;10527;52.124;5.196;2022-07-23T14:11:45;26.50;99.90
20732;DHT22;10527;52.124;5.196;2022-07-23T14:14:12;26.50;99.90
20732;DHT22;10527;52.124;5.196;2022-07-23T14:16:41;26.50;99.90
20732;DHT22;10527;52.124;5.196;2022-07-23T14:19:08;26.50;99.90
20732;DHT22;10527;52.124;5.196;2022-07-23T14:21:34;26.50;99.90
20732;DHT22;10527;52.124;5.196;2022-07-23T14:24:01;26.30;99.90
20732;DHT22;10527;52.124;5.196;2022-07-23T14:26:32;26.20;99.90
20732;DHT22;10527;52.124;5.196;2022-07-23T14:29:20;26.00;99.90
20732;DHT22;10527;52.124;5.196;2022-07-23T14:31:46;26.20;99.90
20732;DHT22;10527;52.124;5.196;2022-07-23T14:34:13;26.00;99.90
20732;DHT22;10527;52.124;5.196;2022-07-23T14:36:41;26.10;99.90
20732;DHT22;10527;52.124;5.196;2022-07-23T14:39:08;26.20;99.90
20732;DHT22;10527;52.124;5.196;2022-07-23T14:41:36;26.20;99.90
20732;DHT22;10527;52.124;5.196;2022-07-23T14:44:03;26.30;99.90
20732;DHT22;10527;52.124;5.196;2022-07-23T14:46:32;26.30;99.90
20732;DHT22;10527;52.124;5.196;2022-07-23T14:48:59;26.00;99.90
20732;DHT22;10527;52.124;5.196;2022-07-23T14:51:26;26.30;99.90
20732;DHT22;10527;52.124;5.196;2022-07-23T14:53:54;26.20;99.90
20732;DHT22;10527;52.124;5.196;2022-07-23T14:56:21;26.10;99.90
20732;DHT22;10527;52.124;5.196;2022-07-23T14:58:48;25.90;99.90
20732;DHT22;10527;52.124;5.196;2022-07-23T15:01:15;26.10;99.90
20732;DHT22;10527;52.124;5.196;2022-07-23T15:03:43;26.40;99.90
20732;DHT22;10527;52.124;5.196;2022-07-23T15:06:09;26.20;99.90
20732;DHT22;10527;52.124;5.196;2022-07-23T15:08:39;26.30;99.90
20732;DHT22;10527;52.124;5.196;2022-07-23T15:11:06;26.40;99.90
20732;DHT22;10527;52.124;5.196;2022-07-23T15:13:37;26.40;99.90
20732;DHT22;10527;52.124;5.196;2022-07-23T15:16:05;26.20;99.90
20732;DHT22;10527;52.124;5.196;2022-07-23T15:18:35;26.60;99.90
20732;DHT22;10527;52.124;5.196;2022-07-23T15:21:03;26.70;99.90
20732;DHT22;10527;52.124;5.196;2022-07-23T15:23:30;26.70;99.90
20732;DHT22;10527;52.124;5.196;2022-07-23T15:25:58;26.70;99.90
20732;DHT22;10527;52.124;5.196;2022-07-23T15:28:26;26.60;99.90
20732;DHT22;10527;52.124;5.196;2022-07-23T15:30:53;26.40;99.90
20732;DHT22;10527;52.124;5.196;2022-07-23T15:33:20;26.50;99.90
20732;DHT22;10527;52.124;5.196;2022-07-23T15:36:07;26.20;99.90
20732;DHT22;10527;52.124;5.196;2022-07-23T15:38:34;26.10;99.90
20732;DHT22;10527;52.124;5.196;2022-07-23T15:41:01;26.00;99.90
20732;DHT22;10527;52.124;5.196;2022-07-23T15:43:28;26.10;99.90
20732;DHT22;10527;52.124;5.196;2022-07-23T15:45:58;25.70;99.90
20732;DHT22;10527;52.124;5.196;2022-07-23T15:48:26;25.70;99.90
20732;DHT22;10527;52.124;5.196;2022-07-23T15:50:53;25.70;99.90
20732;DHT22;10527;52.124;5.196;2022-07-23T15:53:20;25.70;99.90
20732;DHT22;10527;52.124;5.196;2022-07-23T15:56:04;26.10;99.90
20732;DHT22;10527;52.124;5.196;2022-07-23T15:58:38;25.90;99.90
20732;DHT22;10527;52.124;5.196;2022-07-23T16:01:05;25.90;99.90
20732;DHT22;10527;52.124;5.196;2022-07-23T16:03:35;26.40;99.90
20732;DHT22;10527;52.124;5.196;2022-07-23T16:06:07;26.50;99.90
20732;DHT22;10527;52.124;5.196;2022-07-23T16:08:43;26.60;99.90